createdAt,value
2023-03-04T20:14:48.217Z,94.56
2023-03-04T20:15:48.140Z,94.74
2023-03-04T20:16:48.095Z,94.37
2023-03-04T20:17:48.035Z,95.03
2023-03-04T20:18:47.974Z,94.74
2023-03-04T20:19:47.924Z,94.84
2023-03-04T20:20:47.870Z,94.93
2023-03-04T20:21:47.833Z,95.22
2023-03-04T20:22:47.778Z,95.22
2023-03-04T20:23:47.738Z,94.93
2023-03-04T20:24:47.676Z,95.31
2023-03-04T20:25:47.628Z,95.89
2023-03-04T20:26:47.577Z,95.79
2023-03-04T20:27:47.530Z,95.79
2023-03-04T20:28:47.484Z,95.51
2023-03-04T20:29:47.429Z,95.79
2023-03-04T20:30:47.447Z,95.51
2023-03-04T20:31:47.355Z,96.08
2023-03-04T20:32:47.283Z,95.89
2023-03-04T20:33:47.255Z,96.36
2023-03-04T20:34:47.283Z,96.83
2023-03-04T20:35:47.335Z,96.74
2023-03-04T20:36:47.129Z,96.83
2023-03-04T20:37:47.055Z,97.02
2023-03-04T20:38:47.003Z,96.55
2023-03-04T20:39:46.960Z,96.45
2023-03-04T20:40:46.914Z,96.64
2023-03-04T20:41:46.863Z,96.45
2023-03-04T20:42:46.823Z,96.64
2023-03-04T20:43:46.767Z,97.22
2023-03-04T20:44:47.126Z,96.74
2023-03-04T20:45:46.675Z,96.79
2023-03-04T20:46:46.650Z,97.45
2023-03-04T20:47:46.605Z,97.31
2023-03-04T20:48:46.544Z,97.60
2023-03-04T20:49:46.486Z,97.60
2023-03-04T20:50:46.444Z,97.78
2023-03-04T20:51:46.423Z,97.36
2023-03-04T20:52:46.360Z,97.74
2023-03-04T20:53:46.326Z,98.12
2023-03-04T20:54:46.271Z,98.50
2023-03-04T20:55:46.233Z,98.02
2023-03-04T20:56:46.489Z,98.69
2023-03-04T20:57:46.115Z,99.40
2023-03-04T20:58:46.077Z,99.35
2023-03-04T20:59:46.352Z,99.99
2023-03-04T21:00:47.910Z,99.99
2023-03-04T21:01:45.973Z,99.99
2023-03-04T21:02:45.909Z,99.99
2023-03-04T21:03:45.854Z,99.99
2023-03-04T21:04:45.877Z,99.99
2023-03-04T21:05:45.766Z,99.99
2023-03-04T21:06:45.702Z,99.99
2023-03-04T21:07:45.661Z,99.99
2023-03-04T21:08:45.609Z,99.99
2023-03-04T21:09:45.557Z,99.99
2023-03-04T21:10:45.514Z,99.99
2023-03-04T21:11:45.470Z,99.99
2023-03-04T21:12:45.426Z,99.99
2023-03-04T21:13:45.401Z,99.99
2023-03-04T21:14:45.331Z,99.99
2023-03-04T21:15:45.302Z,99.99
2023-03-04T21:16:45.235Z,99.99
2023-03-04T21:17:45.188Z,99.99
2023-03-04T21:18:45.165Z,99.99
2023-03-04T21:19:45.109Z,99.99
2023-03-04T21:20:45.062Z,99.99
2023-03-04T21:21:45.013Z,99.99
2023-03-04T21:22:44.976Z,99.99
2023-03-04T21:23:44.924Z,99.99
2023-03-04T21:24:44.912Z,99.99
2023-03-04T21:25:44.828Z,99.99
2023-03-04T21:26:44.786Z,99.99
2023-03-04T21:27:44.738Z,99.99
2023-03-04T21:28:44.692Z,99.99
2023-03-04T21:29:44.647Z,99.99
2023-03-04T21:30:44.602Z,99.99
2023-03-04T21:31:44.669Z,99.99
2023-03-04T21:32:44.564Z,99.99
2023-03-04T21:33:44.464Z,99.99
2023-03-04T21:34:44.444Z,99.99
2023-03-04T21:35:44.414Z,99.99
2023-03-04T21:36:44.328Z,99.99
2023-03-04T21:37:44.286Z,99.99
2023-03-04T21:38:44.238Z,99.99
2023-03-04T21:40:44.156Z,99.99
2023-03-04T21:41:44.109Z,99.99
2023-03-04T21:42:44.055Z,99.99
2023-03-04T21:43:44.014Z,99.99
2023-03-04T21:44:51.097Z,99.99
2023-03-04T21:45:43.924Z,99.99
2023-03-04T21:46:43.909Z,99.99
2023-03-04T21:47:43.839Z,99.99
2023-03-04T21:48:43.791Z,99.99
2023-03-04T21:49:43.738Z,99.99
2023-03-04T21:50:43.716Z,99.99
2023-03-04T21:51:43.654Z,99.99
2023-03-04T21:52:43.609Z,99.99
2023-03-04T21:53:43.562Z,99.99
2023-03-04T21:54:43.515Z,99.99
2023-03-04T21:55:43.477Z,99.99
2023-03-04T21:56:43.424Z,99.99
2023-03-04T21:57:43.381Z,99.99
2023-03-04T21:58:43.342Z,99.99
2023-03-04T21:59:43.287Z,99.99
2023-03-04T22:00:43.483Z,99.99
2023-03-04T22:01:43.229Z,99.99
2023-03-04T22:02:43.162Z,99.99
2023-03-04T22:03:43.135Z,99.99
2023-03-04T22:04:43.062Z,99.99
2023-03-04T22:05:43.020Z,99.99
2023-03-04T22:06:43.000Z,99.99
2023-03-04T22:07:42.924Z,99.99
2023-03-04T22:08:42.898Z,99.99
2023-03-04T22:09:42.829Z,99.99
2023-03-04T22:10:42.786Z,99.99
2023-03-04T22:11:42.762Z,99.99
2023-03-04T22:12:42.698Z,99.99
2023-03-04T22:13:42.649Z,99.99
2023-03-04T22:14:42.602Z,99.99
2023-03-04T22:15:42.557Z,99.99
2023-03-04T22:16:54.538Z,99.99
2023-03-04T22:17:42.475Z,99.99
2023-03-04T22:18:42.427Z,99.99
2023-03-04T22:19:42.389Z,99.99
2023-03-04T22:20:42.326Z,99.99
2023-03-04T22:21:42.286Z,99.99
2023-03-04T22:22:42.257Z,99.99
2023-03-04T22:23:42.191Z,99.99
2023-03-04T22:24:42.146Z,99.99
2023-03-04T22:25:42.096Z,99.99
2023-03-04T22:26:42.055Z,99.99
2023-03-04T22:27:42.011Z,99.99
2023-03-04T22:28:41.958Z,99.99
2023-03-04T22:29:41.924Z,99.99
2023-03-04T22:30:41.869Z,99.99
2023-03-04T22:31:41.965Z,99.99
2023-03-04T22:32:41.871Z,99.99
2023-03-04T22:33:41.738Z,99.99
2023-03-04T22:34:41.689Z,99.99
2023-03-04T22:35:41.681Z,99.99
2023-03-04T22:36:41.589Z,99.99
2023-03-04T22:37:41.544Z,99.99
2023-03-04T22:38:41.529Z,99.99
2023-03-04T22:39:41.460Z,99.99
2023-03-04T22:40:41.413Z,99.99
2023-03-04T22:41:41.360Z,99.99
2023-03-04T22:42:41.323Z,99.99
2023-03-04T22:43:41.268Z,99.99
2023-03-04T22:44:41.224Z,99.99
2023-03-04T22:45:41.202Z,99.99
2023-03-04T22:46:41.134Z,99.99
2023-03-04T22:47:41.086Z,99.99
2023-03-04T22:48:41.038Z,99.99
2023-03-04T22:49:40.995Z,99.99
2023-03-04T22:50:40.944Z,99.99
2023-03-04T22:51:40.897Z,99.99
2023-03-04T22:52:40.848Z,99.99
2023-03-04T22:53:40.811Z,99.99
2023-03-04T22:54:40.776Z,99.99
2023-03-04T22:55:40.709Z,99.99
2023-03-04T22:56:40.663Z,99.99
2023-03-04T22:57:40.633Z,99.99
2023-03-04T22:58:40.567Z,99.99
2023-03-04T22:59:40.532Z,99.99
2023-03-04T23:00:40.497Z,99.99
2023-03-04T23:01:40.428Z,99.99
2023-03-04T23:02:40.424Z,99.99
2023-03-04T23:03:40.335Z,99.99
2023-03-04T23:04:42.687Z,99.99
2023-03-04T23:05:40.246Z,99.99
2023-03-04T23:06:40.201Z,99.99
2023-03-04T23:07:40.155Z,99.99
2023-03-04T23:08:40.112Z,99.99
2023-03-04T23:09:40.067Z,99.99
2023-03-04T23:10:40.029Z,99.99
2023-03-04T23:11:39.965Z,99.99
2023-03-04T23:12:39.923Z,99.99
2023-03-04T23:13:39.869Z,99.99
2023-03-04T23:14:39.916Z,99.99
2023-03-04T23:15:39.773Z,99.99
2023-03-04T23:16:39.769Z,99.99
2023-03-04T23:17:39.686Z,99.99
2023-03-04T23:18:39.638Z,99.99
2023-03-04T23:19:39.590Z,99.99
2023-03-04T23:20:39.551Z,99.99
2023-03-04T23:21:39.498Z,99.99
2023-03-04T23:22:39.452Z,99.99
2023-03-04T23:23:39.409Z,99.99
2023-03-04T23:24:39.358Z,99.99
2023-03-04T23:25:39.311Z,99.99
2023-03-04T23:26:39.494Z,99.99
2023-03-04T23:27:39.222Z,99.99
2023-03-04T23:28:39.173Z,99.99
2023-03-04T23:29:39.153Z,99.99
2023-03-04T23:30:39.118Z,99.99
2023-03-04T23:31:39.058Z,99.99
2023-03-04T23:32:39.205Z,99.99
2023-03-04T23:33:38.936Z,99.99
2023-03-04T23:34:38.918Z,99.99
2023-03-04T23:35:38.921Z,99.99
2023-03-04T23:36:38.797Z,99.99
2023-03-04T23:37:38.750Z,99.99
2023-03-04T23:38:38.707Z,99.99
2023-03-04T23:39:38.660Z,99.99
2023-03-04T23:40:38.620Z,99.99
2023-03-04T23:41:38.597Z,99.99
2023-03-04T23:42:38.542Z,99.99
2023-03-04T23:43:38.473Z,99.99
2023-03-04T23:44:38.426Z,99.99
2023-03-04T23:45:38.417Z,99.99
2023-03-04T23:46:38.336Z,99.99
2023-03-04T23:47:38.287Z,99.99
2023-03-04T23:48:38.240Z,99.99
2023-03-04T23:49:38.198Z,99.99
2023-03-04T23:50:38.158Z,99.99
2023-03-04T23:51:38.101Z,99.99
2023-03-04T23:52:38.059Z,99.99
2023-03-04T23:53:38.021Z,99.99
2023-03-04T23:54:37.964Z,99.99
2023-03-04T23:55:37.912Z,99.99
2023-03-04T23:56:37.879Z,99.99
2023-03-04T23:57:37.813Z,99.99
2023-03-04T23:58:37.796Z,99.99
2023-03-04T23:59:37.720Z,99.99
